Terminal Aerodrome Forecast
Issued by NWS Sterling, VA

Current Version | Previous Version | Graphics & Text | Print | Product List | Glossary On
Versions: 1 2 3 4 5 6 7 8 9 10 11 12 13 14 15 16 17 18 19 20 21 22
000
FTUS41 KLWX 222327
TAFIAD
TAF
KIAD 222327Z 2300/2406 30010G20KT P6SM SCT050
     FM230600 28007KT P6SM SCT050
     FM231400 27010G18KT P6SM BKN050
     FM231700 29015G25KT P6SM BKN050
     FM240000 31010KT P6SM BKN050
     FM240500 30005KT P6SM BKN050=

USA.gov is the U.S. government's official web portal to all federal, state and local government web resources and services.